Hovedside
METAR-TAF:

METAR-TAF

Lufthavner :

Sundsvall Timrå lufthavn

Sundsvall-Härnösand, Sverige

breddegrad: 62-32N, lengdegrad: 017-27E, høyde over havet: 4 m

Gjeldene værobservasjon

Denne rapporten ble laget for 26 minutter siden, klokken 06:20 UTC
Vind 5 kt fra Nord, skiftende mellom Nord-nordvest og Øst-nordøst
Temperatur 1°C
Luftfuktighet 100%
Trykk 1011 hPa
Sikt: 6000 m

METAR: ESNN 170620Z AUTO 36005KT 330V070 6000 OVC005/// 01/01 Q1011 RESHUP

Tid: 07:46 (06:46 UTC)


TAF: fraværende

Værobservasjoner og værvarsel for over 4000 flyplasser (METAR- og TAF-rapporter).

Tilgjengelige stasjoner er representert av de røde og gule prikkene på kartet.

Hold musepekeren over prikken for å se navnet på stasjonen.

Klikk så for å se værobservasjoner og -varsler.

For å forandre kartet kan du klikke på den grønne knappen med svart kryss for å zoome inn, på den grønne knappen med strek for å zoome ut, eller på de grønne pilene for å se tilstøtende kart.


METAR-TAF: